sensor_id;sensor_type;location;lat;lon;timestamp;P1;durP1;ratioP1;P2;durP2;ratioP2
11000;SDS011;5553;48.506;8.870;2022-11-27T00:01:31;22.40;;;7.20;;
11000;SDS011;5553;48.506;8.870;2022-11-27T00:04:02;15.93;;;6.50;;
11000;SDS011;5553;48.506;8.870;2022-11-27T00:06:30;15.40;;;6.30;;
11000;SDS011;5553;48.506;8.870;2022-11-27T00:09:00;17.83;;;6.20;;
11000;SDS011;5553;48.506;8.870;2022-11-27T00:11:34;37.63;;;7.40;;
11000;SDS011;5553;48.506;8.870;2022-11-27T00:14:03;18.60;;;5.50;;
11000;SDS011;5553;48.506;8.870;2022-11-27T00:16:32;16.40;;;6.83;;
11000;SDS011;5553;48.506;8.870;2022-11-27T00:19:01;13.53;;;6.37;;
11000;SDS011;5553;48.506;8.870;2022-11-27T00:21:30;11.97;;;6.50;;
11000;SDS011;5553;48.506;8.870;2022-11-27T00:24:01;10.00;;;6.53;;
11000;SDS011;5553;48.506;8.870;2022-11-27T00:26:34;12.07;;;6.07;;
11000;SDS011;5553;48.506;8.870;2022-11-27T00:29:02;9.93;;;6.10;;
11000;SDS011;5553;48.506;8.870;2022-11-27T00:31:31;13.43;;;6.57;;
11000;SDS011;5553;48.506;8.870;2022-11-27T00:34:02;8.90;;;5.60;;
11000;SDS011;5553;48.506;8.870;2022-11-27T00:36:32;10.17;;;6.30;;
11000;SDS011;5553;48.506;8.870;2022-11-27T00:39:00;16.90;;;6.20;;
11000;SDS011;5553;48.506;8.870;2022-11-27T00:41:29;10.90;;;5.93;;
11000;SDS011;5553;48.506;8.870;2022-11-27T00:44:01;14.40;;;5.77;;
11000;SDS011;5553;48.506;8.870;2022-11-27T00:46:30;18.50;;;6.47;;
11000;SDS011;5553;48.506;8.870;2022-11-27T00:49:01;17.93;;;6.57;;
11000;SDS011;5553;48.506;8.870;2022-11-27T00:51:31;22.40;;;6.40;;
11000;SDS011;5553;48.506;8.870;2022-11-27T00:54:00;15.23;;;5.87;;
11000;SDS011;5553;48.506;8.870;2022-11-27T00:56:29;16.47;;;7.10;;
11000;SDS011;5553;48.506;8.870;2022-11-27T00:59:02;12.90;;;6.10;;
11000;SDS011;5553;48.506;8.870;2022-11-27T01:01:32;9.27;;;5.47;;
11000;SDS011;5553;48.506;8.870;2022-11-27T01:04:03;13.07;;;7.27;;
11000;SDS011;5553;48.506;8.870;2022-11-27T01:06:32;11.23;;;5.13;;
11000;SDS011;5553;48.506;8.870;2022-11-27T01:09:01;26.90;;;6.13;;
11000;SDS011;5553;48.506;8.870;2022-11-27T01:11:30;40.07;;;8.07;;
11000;SDS011;5553;48.506;8.870;2022-11-27T01:14:04;73.97;;;11.60;;
11000;SDS011;5553;48.506;8.870;2022-11-27T01:16:34;41.93;;;7.67;;
11000;SDS011;5553;48.506;8.870;2022-11-27T01:19:04;22.47;;;6.63;;
11000;SDS011;5553;48.506;8.870;2022-11-27T01:21:33;37.80;;;6.73;;
11000;SDS011;5553;48.506;8.870;2022-11-27T01:24:02;32.20;;;6.87;;
11000;SDS011;5553;48.506;8.870;2022-11-27T01:26:31;32.90;;;7.30;;
11000;SDS011;5553;48.506;8.870;2022-11-27T01:28:59;20.73;;;5.90;;
11000;SDS011;5553;48.506;8.870;2022-11-27T01:31:31;22.77;;;5.57;;
11000;SDS011;5553;48.506;8.870;2022-11-27T01:34:01;17.23;;;5.00;;
11000;SDS011;5553;48.506;8.870;2022-11-27T01:36:32;15.43;;;6.07;;
11000;SDS011;5553;48.506;8.870;2022-11-27T01:39:01;13.10;;;6.17;;
11000;SDS011;5553;48.506;8.870;2022-11-27T01:41:31;41.70;;;6.40;;
11000;SDS011;5553;48.506;8.870;2022-11-27T01:47:02;17.50;;;5.80;;
11000;SDS011;5553;48.506;8.870;2022-11-27T01:49:34;13.57;;;5.50;;
11000;SDS011;5553;48.506;8.870;2022-11-27T01:52:05;12.80;;;5.43;;
11000;SDS011;5553;48.506;8.870;2022-11-27T01:54:37;16.33;;;4.33;;
11000;SDS011;5553;48.506;8.870;2022-11-27T01:57:11;14.90;;;4.90;;
11000;SDS011;5553;48.506;8.870;2022-11-27T01:59:42;6.20;;;4.60;;
11000;SDS011;5553;48.506;8.870;2022-11-27T02:02:14;14.13;;;5.50;;
11000;SDS011;5553;48.506;8.870;2022-11-27T02:04:43;15.73;;;5.20;;
11000;SDS011;5553;48.506;8.870;2022-11-27T02:07:11;15.33;;;5.50;;
11000;SDS011;5553;48.506;8.870;2022-11-27T02:09:39;13.03;;;4.43;;
11000;SDS011;5553;48.506;8.870;2022-11-27T02:12:10;12.10;;;5.77;;
11000;SDS011;5553;48.506;8.870;2022-11-27T02:14:51;10.27;;;5.20;;
11000;SDS011;5553;48.506;8.870;2022-11-27T02:17:29;9.30;;;4.67;;
11000;SDS011;5553;48.506;8.870;2022-11-27T02:26:04;12.60;;;7.60;;
11000;SDS011;5553;48.506;8.870;2022-11-27T02:28:55;6.07;;;4.63;;
11000;SDS011;5553;48.506;8.870;2022-11-27T02:31:28;18.53;;;4.43;;
11000;SDS011;5553;48.506;8.870;2022-11-27T02:34:06;10.20;;;4.63;;
11000;SDS011;5553;48.506;8.870;2022-11-27T02:36:43;5.43;;;4.47;;
11000;SDS011;5553;48.506;8.870;2022-11-27T02:39:18;18.33;;;4.60;;
11000;SDS011;5553;48.506;8.870;2022-11-27T02:41:52;7.67;;;3.90;;
11000;SDS011;5553;48.506;8.870;2022-11-27T02:44:27;5.87;;;4.37;;
11000;SDS011;5553;48.506;8.870;2022-11-27T02:47:00;6.90;;;3.90;;
11000;SDS011;5553;48.506;8.870;2022-11-27T02:49:31;7.17;;;4.67;;
11000;SDS011;5553;48.506;8.870;2022-11-27T02:52:02;5.50;;;3.90;;
11000;SDS011;5553;48.506;8.870;2022-11-27T02:54:32;18.60;;;4.77;;
11000;SDS011;5553;48.506;8.870;2022-11-27T02:57:01;8.03;;;3.73;;
11000;SDS011;5553;48.506;8.870;2022-11-27T02:59:35;12.40;;;3.77;;
11000;SDS011;5553;48.506;8.870;2022-11-27T03:02:07;17.43;;;4.27;;
11000;SDS011;5553;48.506;8.870;2022-11-27T03:04:40;7.80;;;3.93;;
11000;SDS011;5553;48.506;8.870;2022-11-27T03:07:13;5.13;;;4.23;;
11000;SDS011;5553;48.506;8.870;2022-11-27T03:09:50;8.57;;;3.90;;
11000;SDS011;5553;48.506;8.870;2022-11-27T03:12:24;9.37;;;4.27;;
11000;SDS011;5553;48.506;8.870;2022-11-27T03:14:55;6.80;;;3.90;;
11000;SDS011;5553;48.506;8.870;2022-11-27T03:17:28;5.80;;;4.40;;
11000;SDS011;5553;48.506;8.870;2022-11-27T03:20:09;6.80;;;4.10;;
11000;SDS011;5553;48.506;8.870;2022-11-27T03:22:42;8.50;;;4.20;;
11000;SDS011;5553;48.506;8.870;2022-11-27T03:25:10;6.63;;;4.47;;
11000;SDS011;5553;48.506;8.870;2022-11-27T03:27:42;7.63;;;4.30;;
11000;SDS011;5553;48.506;8.870;2022-11-27T03:30:16;5.83;;;4.13;;
11000;SDS011;5553;48.506;8.870;2022-11-27T03:32:45;6.40;;;5.03;;
11000;SDS011;5553;48.506;8.870;2022-11-27T03:35:15;6.10;;;4.20;;
11000;SDS011;5553;48.506;8.870;2022-11-27T03:37:46;4.47;;;3.70;;
11000;SDS011;5553;48.506;8.870;2022-11-27T03:40:15;8.13;;;4.10;;
11000;SDS011;5553;48.506;8.870;2022-11-27T03:42:50;5.60;;;4.33;;
11000;SDS011;5553;48.506;8.870;2022-11-27T03:45:29;4.70;;;3.97;;
11000;SDS011;5553;48.506;8.870;2022-11-27T03:48:05;5.13;;;3.90;;
11000;SDS011;5553;48.506;8.870;2022-11-27T03:50:47;5.10;;;3.43;;
11000;SDS011;5553;48.506;8.870;2022-11-27T03:53:26;5.67;;;4.00;;
11000;SDS011;5553;48.506;8.870;2022-11-27T03:56:05;5.63;;;4.67;;
11000;SDS011;5553;48.506;8.870;2022-11-27T03:58:40;16.57;;;5.57;;
11000;SDS011;5553;48.506;8.870;2022-11-27T04:01:16;12.93;;;4.00;;
11000;SDS011;5553;48.506;8.870;2022-11-27T04:03:48;13.97;;;7.03;;
11000;SDS011;5553;48.506;8.870;2022-11-27T04:06:16;16.73;;;4.93;;
11000;SDS011;5553;48.506;8.870;2022-11-27T04:08:45;16.83;;;6.00;;
11000;SDS011;5553;48.506;8.870;2022-11-27T04:11:14;19.97;;;5.20;;
11000;SDS011;5553;48.506;8.870;2022-11-27T04:13:42;18.43;;;4.90;;
11000;SDS011;5553;48.506;8.870;2022-11-27T04:16:11;24.87;;;5.60;;
11000;SDS011;5553;48.506;8.870;2022-11-27T04:18:41;14.47;;;4.53;;
11000;SDS011;5553;48.506;8.870;2022-11-27T04:21:10;13.07;;;5.37;;
11000;SDS011;5553;48.506;8.870;2022-11-27T04:23:38;11.93;;;5.77;;
11000;SDS011;5553;48.506;8.870;2022-11-27T04:26:07;30.03;;;5.53;;
11000;SDS011;5553;48.506;8.870;2022-11-27T04:28:35;11.60;;;6.03;;
11000;SDS011;5553;48.506;8.870;2022-11-27T04:31:04;8.40;;;4.83;;
11000;SDS011;5553;48.506;8.870;2022-11-27T04:33:32;13.00;;;5.47;;
11000;SDS011;5553;48.506;8.870;2022-11-27T04:36:03;12.63;;;5.50;;
11000;SDS011;5553;48.506;8.870;2022-11-27T04:38:32;30.30;;;5.30;;
11000;SDS011;5553;48.506;8.870;2022-11-27T04:41:00;15.27;;;5.37;;
11000;SDS011;5553;48.506;8.870;2022-11-27T04:43:29;18.10;;;4.77;;
11000;SDS011;5553;48.506;8.870;2022-11-27T04:45:57;12.80;;;4.90;;
11000;SDS011;5553;48.506;8.870;2022-11-27T04:48:25;11.00;;;4.97;;
11000;SDS011;5553;48.506;8.870;2022-11-27T04:50:54;29.60;;;5.57;;
11000;SDS011;5553;48.506;8.870;2022-11-27T04:53:25;10.30;;;4.30;;
11000;SDS011;5553;48.506;8.870;2022-11-27T04:55:53;11.13;;;3.90;;
11000;SDS011;5553;48.506;8.870;2022-11-27T04:58:21;35.13;;;6.13;;
11000;SDS011;5553;48.506;8.870;2022-11-27T05:00:50;19.40;;;4.43;;
11000;SDS011;5553;48.506;8.870;2022-11-27T05:03:18;11.23;;;4.97;;
11000;SDS011;5553;48.506;8.870;2022-11-27T05:05:53;21.07;;;5.17;;
11000;SDS011;5553;48.506;8.870;2022-11-27T05:08:25;26.37;;;5.57;;
11000;SDS011;5553;48.506;8.870;2022-11-27T05:10:57;14.00;;;4.90;;
11000;SDS011;5553;48.506;8.870;2022-11-27T05:13:27;11.53;;;4.03;;
11000;SDS011;5553;48.506;8.870;2022-11-27T05:15:55;5.80;;;4.23;;
11000;SDS011;5553;48.506;8.870;2022-11-27T05:18:24;8.20;;;4.10;;
11000;SDS011;5553;48.506;8.870;2022-11-27T05:20:56;10.00;;;3.67;;
11000;SDS011;5553;48.506;8.870;2022-11-27T05:23:27;4.97;;;3.57;;
11000;SDS011;5553;48.506;8.870;2022-11-27T05:25:56;4.47;;;3.57;;
11000;SDS011;5553;48.506;8.870;2022-11-27T05:28:25;5.13;;;4.03;;
11000;SDS011;5553;48.506;8.870;2022-11-27T05:30:53;4.13;;;3.53;;
11000;SDS011;5553;48.506;8.870;2022-11-27T05:33:21;6.00;;;3.23;;
11000;SDS011;5553;48.506;8.870;2022-11-27T05:35:50;5.17;;;3.63;;
11000;SDS011;5553;48.506;8.870;2022-11-27T05:38:18;4.60;;;3.40;;
11000;SDS011;5553;48.506;8.870;2022-11-27T05:40:49;4.10;;;2.80;;
11000;SDS011;5553;48.506;8.870;2022-11-27T05:49:44;2.87;;;2.67;;
11000;SDS011;5553;48.506;8.870;2022-11-27T05:52:12;4.20;;;3.10;;
11000;SDS011;5553;48.506;8.870;2022-11-27T05:54:41;4.13;;;3.70;;
11000;SDS011;5553;48.506;8.870;2022-11-27T05:57:12;5.10;;;3.23;;
11000;SDS011;5553;48.506;8.870;2022-11-27T05:59:40;6.03;;;3.67;;
11000;SDS011;5553;48.506;8.870;2022-11-27T06:02:08;5.50;;;4.13;;
11000;SDS011;5553;48.506;8.870;2022-11-27T06:04:37;3.67;;;2.90;;
11000;SDS011;5553;48.506;8.870;2022-11-27T06:07:05;4.00;;;3.43;;
11000;SDS011;5553;48.506;8.870;2022-11-27T06:09:36;4.93;;;3.70;;
11000;SDS011;5553;48.506;8.870;2022-11-27T06:12:04;4.30;;;3.43;;
11000;SDS011;5553;48.506;8.870;2022-11-27T06:14:36;5.97;;;4.10;;
11000;SDS011;5553;48.506;8.870;2022-11-27T06:17:04;4.10;;;2.90;;
11000;SDS011;5553;48.506;8.870;2022-11-27T06:19:32;5.90;;;3.50;;
11000;SDS011;5553;48.506;8.870;2022-11-27T06:22:01;5.03;;;4.33;;
11000;SDS011;5553;48.506;8.870;2022-11-27T06:24:29;4.40;;;3.70;;
11000;SDS011;5553;48.506;8.870;2022-11-27T06:26:57;6.80;;;3.43;;
11000;SDS011;5553;48.506;8.870;2022-11-27T06:29:25;4.83;;;3.30;;
11000;SDS011;5553;48.506;8.870;2022-11-27T06:31:56;3.47;;;3.13;;
11000;SDS011;5553;48.506;8.870;2022-11-27T06:34:25;4.00;;;3.13;;
11000;SDS011;5553;48.506;8.870;2022-11-27T06:36:53;3.10;;;2.40;;
11000;SDS011;5553;48.506;8.870;2022-11-27T06:39:21;4.93;;;3.50;;
11000;SDS011;5553;48.506;8.870;2022-11-27T06:41:50;4.77;;;3.50;;
11000;SDS011;5553;48.506;8.870;2022-11-27T06:44:18;4.57;;;3.23;;
11000;SDS011;5553;48.506;8.870;2022-11-27T06:46:46;4.70;;;3.70;;
11000;SDS011;5553;48.506;8.870;2022-11-27T06:49:17;5.90;;;3.20;;
11000;SDS011;5553;48.506;8.870;2022-11-27T06:51:47;6.00;;;3.50;;
11000;SDS011;5553;48.506;8.870;2022-11-27T06:54:15;6.73;;;4.17;;
11000;SDS011;5553;48.506;8.870;2022-11-27T06:56:44;4.87;;;3.63;;
11000;SDS011;5553;48.506;8.870;2022-11-27T06:59:12;3.90;;;3.00;;
11000;SDS011;5553;48.506;8.870;2022-11-27T07:01:41;5.70;;;3.67;;
11000;SDS011;5553;48.506;8.870;2022-11-27T07:04:10;4.80;;;3.23;;
11000;SDS011;5553;48.506;8.870;2022-11-27T07:06:42;3.93;;;3.37;;
11000;SDS011;5553;48.506;8.870;2022-11-27T07:09:11;4.60;;;3.77;;
11000;SDS011;5553;48.506;8.870;2022-11-27T07:11:39;6.23;;;4.07;;
11000;SDS011;5553;48.506;8.870;2022-11-27T07:14:08;6.90;;;4.83;;
11000;SDS011;5553;48.506;8.870;2022-11-27T07:16:37;4.63;;;4.10;;
11000;SDS011;5553;48.506;8.870;2022-11-27T07:19:06;8.57;;;5.07;;
11000;SDS011;5553;48.506;8.870;2022-11-27T07:21:34;7.87;;;5.53;;
11000;SDS011;5553;48.506;8.870;2022-11-27T07:24:06;8.30;;;5.77;;
11000;SDS011;5553;48.506;8.870;2022-11-27T07:26:35;8.80;;;5.93;;
11000;SDS011;5553;48.506;8.870;2022-11-27T07:29:03;11.10;;;6.00;;
11000;SDS011;5553;48.506;8.870;2022-11-27T07:31:32;15.60;;;5.80;;
11000;SDS011;5553;48.506;8.870;2022-11-27T07:34:00;20.33;;;6.47;;
11000;SDS011;5553;48.506;8.870;2022-11-27T07:36:29;19.33;;;6.90;;
11000;SDS011;5553;48.506;8.870;2022-11-27T07:38:57;21.17;;;7.10;;
11000;SDS011;5553;48.506;8.870;2022-11-27T07:41:28;18.03;;;6.40;;
11000;SDS011;5553;48.506;8.870;2022-11-27T07:43:57;20.33;;;9.50;;
11000;SDS011;5553;48.506;8.870;2022-11-27T07:46:25;17.97;;;6.70;;
11000;SDS011;5553;48.506;8.870;2022-11-27T07:48:54;20.23;;;6.90;;
11000;SDS011;5553;48.506;8.870;2022-11-27T07:51:24;20.37;;;9.83;;
11000;SDS011;5553;48.506;8.870;2022-11-27T07:53:52;14.13;;;7.70;;
11000;SDS011;5553;48.506;8.870;2022-11-27T07:56:21;9.80;;;5.73;;
11000;SDS011;5553;48.506;8.870;2022-11-27T07:58:52;14.47;;;6.40;;
11000;SDS011;5553;48.506;8.870;2022-11-27T08:01:20;15.80;;;6.40;;
11000;SDS011;5553;48.506;8.870;2022-11-27T08:03:49;8.70;;;5.90;;
11000;SDS011;5553;48.506;8.870;2022-11-27T08:06:18;9.57;;;5.70;;
11000;SDS011;5553;48.506;8.870;2022-11-27T08:08:48;9.50;;;4.90;;
11000;SDS011;5553;48.506;8.870;2022-11-27T08:11:18;8.70;;;6.60;;
11000;SDS011;5553;48.506;8.870;2022-11-27T08:13:48;6.37;;;5.10;;
11000;SDS011;5553;48.506;8.870;2022-11-27T08:16:19;9.50;;;6.93;;
11000;SDS011;5553;48.506;8.870;2022-11-27T08:18:48;7.67;;;5.80;;
11000;SDS011;5553;48.506;8.870;2022-11-27T08:21:16;7.60;;;5.10;;
11000;SDS011;5553;48.506;8.870;2022-11-27T08:23:45;6.17;;;4.90;;
11000;SDS011;5553;48.506;8.870;2022-11-27T08:26:13;6.27;;;4.57;;
11000;SDS011;5553;48.506;8.870;2022-11-27T08:28:42;6.57;;;4.93;;
11000;SDS011;5553;48.506;8.870;2022-11-27T08:31:11;5.40;;;4.27;;
11000;SDS011;5553;48.506;8.870;2022-11-27T08:33:43;5.20;;;4.00;;
11000;SDS011;5553;48.506;8.870;2022-11-27T08:36:11;6.50;;;4.50;;
11000;SDS011;5553;48.506;8.870;2022-11-27T08:38:40;8.07;;;5.00;;
11000;SDS011;5553;48.506;8.870;2022-11-27T08:41:08;7.67;;;4.87;;
11000;SDS011;5553;48.506;8.870;2022-11-27T08:43:36;6.23;;;4.40;;
11000;SDS011;5553;48.506;8.870;2022-11-27T08:46:05;5.70;;;4.60;;
11000;SDS011;5553;48.506;8.870;2022-11-27T08:48:34;8.30;;;5.30;;
11000;SDS011;5553;48.506;8.870;2022-11-27T08:51:07;7.90;;;5.20;;
11000;SDS011;5553;48.506;8.870;2022-11-27T08:53:37;7.80;;;5.40;;
11000;SDS011;5553;48.506;8.870;2022-11-27T08:56:06;9.23;;;5.10;;
11000;SDS011;5553;48.506;8.870;2022-11-27T08:58:36;11.47;;;6.30;;
11000;SDS011;5553;48.506;8.870;2022-11-27T09:01:09;7.77;;;5.57;;
11000;SDS011;5553;48.506;8.870;2022-11-27T09:03:38;6.90;;;5.77;;
11000;SDS011;5553;48.506;8.870;2022-11-27T09:06:12;9.73;;;6.07;;
11000;SDS011;5553;48.506;8.870;2022-11-27T09:08:42;8.63;;;5.47;;
11000;SDS011;5553;48.506;8.870;2022-11-27T09:11:11;6.83;;;5.50;;
11000;SDS011;5553;48.506;8.870;2022-11-27T09:13:41;7.77;;;6.10;;
11000;SDS011;5553;48.506;8.870;2022-11-27T09:16:11;8.80;;;6.30;;
11000;SDS011;5553;48.506;8.870;2022-11-27T09:18:42;10.37;;;7.13;;
11000;SDS011;5553;48.506;8.870;2022-11-27T09:21:14;8.57;;;6.50;;
11000;SDS011;5553;48.506;8.870;2022-11-27T09:23:44;10.40;;;6.97;;
11000;SDS011;5553;48.506;8.870;2022-11-27T09:26:14;10.40;;;6.80;;
11000;SDS011;5553;48.506;8.870;2022-11-27T09:28:43;8.33;;;6.40;;
11000;SDS011;5553;48.506;8.870;2022-11-27T09:31:12;6.67;;;5.83;;
11000;SDS011;5553;48.506;8.870;2022-11-27T09:33:41;9.50;;;6.07;;
11000;SDS011;5553;48.506;8.870;2022-11-27T09:36:14;8.70;;;6.00;;
11000;SDS011;5553;48.506;8.870;2022-11-27T09:38:43;9.10;;;6.67;;
11000;SDS011;5553;48.506;8.870;2022-11-27T09:41:21;8.90;;;6.57;;
11000;SDS011;5553;48.506;8.870;2022-11-27T09:44:06;7.83;;;5.77;;
11000;SDS011;5553;48.506;8.870;2022-11-27T09:46:46;8.37;;;6.00;;
11000;SDS011;5553;48.506;8.870;2022-11-27T09:49:21;9.20;;;6.23;;
11000;SDS011;5553;48.506;8.870;2022-11-27T09:51:57;7.43;;;6.03;;
11000;SDS011;5553;48.506;8.870;2022-11-27T09:54:30;7.20;;;6.20;;
11000;SDS011;5553;48.506;8.870;2022-11-27T09:57:03;11.50;;;6.23;;
11000;SDS011;5553;48.506;8.870;2022-11-27T09:59:35;8.63;;;6.07;;
11000;SDS011;5553;48.506;8.870;2022-11-27T10:02:12;7.47;;;5.60;;
11000;SDS011;5553;48.506;8.870;2022-11-27T10:04:43;8.97;;;5.83;;
11000;SDS011;5553;48.506;8.870;2022-11-27T10:07:18;8.30;;;5.60;;
11000;SDS011;5553;48.506;8.870;2022-11-27T10:10:01;10.73;;;6.17;;
11000;SDS011;5553;48.506;8.870;2022-11-27T10:12:40;6.57;;;5.40;;
11000;SDS011;5553;48.506;8.870;2022-11-27T10:15:22;13.13;;;6.43;;
11000;SDS011;5553;48.506;8.870;2022-11-27T10:18:01;8.17;;;6.37;;
11000;SDS011;5553;48.506;8.870;2022-11-27T10:20:36;8.90;;;6.20;;
11000;SDS011;5553;48.506;8.870;2022-11-27T10:23:17;8.50;;;6.17;;
11000;SDS011;5553;48.506;8.870;2022-11-27T10:25:52;10.27;;;6.40;;
11000;SDS011;5553;48.506;8.870;2022-11-27T10:28:26;7.07;;;5.23;;
11000;SDS011;5553;48.506;8.870;2022-11-27T10:31:02;9.43;;;6.07;;
11000;SDS011;5553;48.506;8.870;2022-11-27T10:33:39;7.57;;;5.70;;
11000;SDS011;5553;48.506;8.870;2022-11-27T10:36:12;9.63;;;6.13;;
11000;SDS011;5553;48.506;8.870;2022-11-27T10:38:45;7.13;;;5.90;;
11000;SDS011;5553;48.506;8.870;2022-11-27T10:41:16;8.70;;;6.10;;
11000;SDS011;5553;48.506;8.870;2022-11-27T10:43:49;9.03;;;6.20;;
11000;SDS011;5553;48.506;8.870;2022-11-27T10:46:23;11.53;;;6.20;;
11000;SDS011;5553;48.506;8.870;2022-11-27T10:48:55;6.53;;;5.60;;
11000;SDS011;5553;48.506;8.870;2022-11-27T10:51:28;7.53;;;5.77;;
11000;SDS011;5553;48.506;8.870;2022-11-27T10:54:04;8.17;;;6.07;;
11000;SDS011;5553;48.506;8.870;2022-11-27T10:56:49;6.47;;;5.17;;
11000;SDS011;5553;48.506;8.870;2022-11-27T10:59:29;8.63;;;5.80;;
11000;SDS011;5553;48.506;8.870;2022-11-27T11:02:01;7.23;;;5.13;;
11000;SDS011;5553;48.506;8.870;2022-11-27T11:04:32;8.57;;;5.27;;
11000;SDS011;5553;48.506;8.870;2022-11-27T11:07:00;8.63;;;5.60;;
11000;SDS011;5553;48.506;8.870;2022-11-27T11:09:33;6.63;;;5.90;;
11000;SDS011;5553;48.506;8.870;2022-11-27T11:12:05;6.63;;;5.40;;
11000;SDS011;5553;48.506;8.870;2022-11-27T11:14:35;8.10;;;5.80;;
11000;SDS011;5553;48.506;8.870;2022-11-27T11:17:13;7.67;;;5.93;;
11000;SDS011;5553;48.506;8.870;2022-11-27T11:19:43;7.73;;;6.53;;
11000;SDS011;5553;48.506;8.870;2022-11-27T11:22:13;6.17;;;5.50;;
11000;SDS011;5553;48.506;8.870;2022-11-27T11:24:46;9.40;;;5.90;;
11000;SDS011;5553;48.506;8.870;2022-11-27T11:27:17;9.53;;;5.80;;
11000;SDS011;5553;48.506;8.870;2022-11-27T11:29:50;6.70;;;5.60;;
11000;SDS011;5553;48.506;8.870;2022-11-27T11:32:22;6.40;;;5.00;;
11000;SDS011;5553;48.506;8.870;2022-11-27T11:34:54;5.80;;;4.90;;
11000;SDS011;5553;48.506;8.870;2022-11-27T11:37:27;6.57;;;5.13;;
11000;SDS011;5553;48.506;8.870;2022-11-27T11:40:02;5.67;;;4.07;;
11000;SDS011;5553;48.506;8.870;2022-11-27T11:42:34;6.83;;;5.53;;
11000;SDS011;5553;48.506;8.870;2022-11-27T11:45:04;5.53;;;4.40;;
11000;SDS011;5553;48.506;8.870;2022-11-27T11:52:51;6.40;;;5.70;;
11000;SDS011;5553;48.506;8.870;2022-11-27T14:57:43;8.57;;;5.90;;
11000;SDS011;5553;48.506;8.870;2022-11-27T15:02:42;9.00;;;6.57;;
11000;SDS011;5553;48.506;8.870;2022-11-27T15:05:18;9.53;;;6.73;;
11000;SDS011;5553;48.506;8.870;2022-11-27T15:07:49;11.07;;;7.40;;
11000;SDS011;5553;48.506;8.870;2022-11-27T15:10:22;9.63;;;7.50;;
11000;SDS011;5553;48.506;8.870;2022-11-27T15:12:57;10.40;;;7.13;;
11000;SDS011;5553;48.506;8.870;2022-11-27T15:15:27;10.40;;;6.80;;
11000;SDS011;5553;48.506;8.870;2022-11-27T15:17:59;8.70;;;6.10;;
11000;SDS011;5553;48.506;8.870;2022-11-27T15:20:34;8.90;;;6.50;;
11000;SDS011;5553;48.506;8.870;2022-11-27T15:23:11;9.30;;;6.93;;
11000;SDS011;5553;48.506;8.870;2022-11-27T15:25:44;11.10;;;7.30;;
11000;SDS011;5553;48.506;8.870;2022-11-27T15:28:31;14.33;;;7.90;;
11000;SDS011;5553;48.506;8.870;2022-11-27T15:31:02;11.73;;;7.67;;
11000;SDS011;5553;48.506;8.870;2022-11-27T15:33:53;9.10;;;6.37;;
11000;SDS011;5553;48.506;8.870;2022-11-27T15:36:36;9.20;;;6.50;;
11000;SDS011;5553;48.506;8.870;2022-11-27T15:39:16;9.40;;;6.47;;
11000;SDS011;5553;48.506;8.870;2022-11-27T15:41:52;8.57;;;6.10;;
11000;SDS011;5553;48.506;8.870;2022-11-27T15:44:24;11.83;;;6.53;;
11000;SDS011;5553;48.506;8.870;2022-11-27T15:46:54;10.63;;;7.17;;
11000;SDS011;5553;48.506;8.870;2022-11-27T15:49:25;10.63;;;5.80;;
11000;SDS011;5553;48.506;8.870;2022-11-27T15:51:53;10.17;;;6.50;;
11000;SDS011;5553;48.506;8.870;2022-11-27T15:54:22;10.50;;;6.70;;
11000;SDS011;5553;48.506;8.870;2022-11-27T15:56:51;10.77;;;6.90;;
11000;SDS011;5553;48.506;8.870;2022-11-27T15:59:20;9.53;;;7.13;;
11000;SDS011;5553;48.506;8.870;2022-11-27T16:01:51;10.90;;;6.87;;
11000;SDS011;5553;48.506;8.870;2022-11-27T16:04:21;12.60;;;6.90;;
11000;SDS011;5553;48.506;8.870;2022-11-27T16:06:50;13.33;;;7.60;;
11000;SDS011;5553;48.506;8.870;2022-11-27T16:09:18;12.30;;;7.10;;
11000;SDS011;5553;48.506;8.870;2022-11-27T16:11:47;13.23;;;8.30;;
11000;SDS011;5553;48.506;8.870;2022-11-27T16:14:15;10.43;;;7.70;;
11000;SDS011;5553;48.506;8.870;2022-11-27T16:16:44;14.00;;;8.20;;
11000;SDS011;5553;48.506;8.870;2022-11-27T16:19:15;12.83;;;8.23;;
11000;SDS011;5553;48.506;8.870;2022-11-27T16:21:44;10.33;;;7.43;;
11000;SDS011;5553;48.506;8.870;2022-11-27T16:24:12;11.13;;;7.83;;
11000;SDS011;5553;48.506;8.870;2022-11-27T16:26:41;11.67;;;6.63;;
11000;SDS011;5553;48.506;8.870;2022-11-27T16:29:10;13.27;;;7.63;;
11000;SDS011;5553;48.506;8.870;2022-11-27T16:31:38;10.83;;;7.23;;
11000;SDS011;5553;48.506;8.870;2022-11-27T16:34:07;10.07;;;7.30;;
11000;SDS011;5553;48.506;8.870;2022-11-27T16:36:38;9.57;;;7.40;;
11000;SDS011;5553;48.506;8.870;2022-11-27T16:39:07;10.33;;;7.70;;
11000;SDS011;5553;48.506;8.870;2022-11-27T16:41:36;10.07;;;7.37;;
11000;SDS011;5553;48.506;8.870;2022-11-27T16:44:08;10.87;;;7.20;;
11000;SDS011;5553;48.506;8.870;2022-11-27T16:46:38;11.90;;;7.10;;
11000;SDS011;5553;48.506;8.870;2022-11-27T16:49:08;11.40;;;7.17;;
11000;SDS011;5553;48.506;8.870;2022-11-27T16:51:40;12.43;;;7.20;;
11000;SDS011;5553;48.506;8.870;2022-11-27T16:54:09;13.67;;;8.00;;
11000;SDS011;5553;48.506;8.870;2022-11-27T16:56:39;10.27;;;7.40;;
11000;SDS011;5553;48.506;8.870;2022-11-27T16:59:07;13.47;;;8.10;;
11000;SDS011;5553;48.506;8.870;2022-11-27T17:01:37;24.27;;;12.37;;
11000;SDS011;5553;48.506;8.870;2022-11-27T17:04:06;14.53;;;9.20;;
11000;SDS011;5553;48.506;8.870;2022-11-27T17:06:36;16.63;;;10.30;;
11000;SDS011;5553;48.506;8.870;2022-11-27T17:09:08;14.90;;;9.13;;
11000;SDS011;5553;48.506;8.870;2022-11-27T17:11:36;12.73;;;8.80;;
11000;SDS011;5553;48.506;8.870;2022-11-27T17:14:08;15.47;;;9.73;;
11000;SDS011;5553;48.506;8.870;2022-11-27T17:16:37;15.77;;;10.77;;
11000;SDS011;5553;48.506;8.870;2022-11-27T17:19:07;30.80;;;14.23;;
11000;SDS011;5553;48.506;8.870;2022-11-27T17:21:38;23.30;;;13.03;;
11000;SDS011;5553;48.506;8.870;2022-11-27T17:24:10;22.77;;;18.43;;
11000;SDS011;5553;48.506;8.870;2022-11-27T17:26:40;19.67;;;16.40;;
11000;SDS011;5553;48.506;8.870;2022-11-27T17:29:10;14.77;;;10.03;;
11000;SDS011;5553;48.506;8.870;2022-11-27T17:31:40;12.63;;;9.20;;
11000;SDS011;5553;48.506;8.870;2022-11-27T17:34:09;17.10;;;11.13;;
11000;SDS011;5553;48.506;8.870;2022-11-27T17:36:39;16.83;;;10.20;;
11000;SDS011;5553;48.506;8.870;2022-11-27T17:39:12;16.83;;;9.37;;
11000;SDS011;5553;48.506;8.870;2022-11-27T17:41:42;12.27;;;8.37;;
11000;SDS011;5553;48.506;8.870;2022-11-27T17:44:11;13.10;;;8.30;;
11000;SDS011;5553;48.506;8.870;2022-11-27T17:46:39;11.20;;;7.90;;
11000;SDS011;5553;48.506;8.870;2022-11-27T17:49:12;12.47;;;9.20;;
11000;SDS011;5553;48.506;8.870;2022-11-27T17:51:40;12.83;;;10.23;;
11000;SDS011;5553;48.506;8.870;2022-11-27T17:54:11;14.23;;;8.50;;
11000;SDS011;5553;48.506;8.870;2022-11-27T17:56:39;13.20;;;9.50;;
11000;SDS011;5553;48.506;8.870;2022-11-27T17:59:08;13.63;;;8.00;;
11000;SDS011;5553;48.506;8.870;2022-11-27T18:01:36;13.83;;;8.70;;
11000;SDS011;5553;48.506;8.870;2022-11-27T18:04:04;13.63;;;7.00;;
11000;SDS011;5553;48.506;8.870;2022-11-27T18:06:34;10.10;;;6.87;;
11000;SDS011;5553;48.506;8.870;2022-11-27T18:09:03;13.13;;;8.20;;
11000;SDS011;5553;48.506;8.870;2022-11-27T18:11:34;16.83;;;9.83;;
11000;SDS011;5553;48.506;8.870;2022-11-27T18:14:03;12.83;;;8.10;;
11000;SDS011;5553;48.506;8.870;2022-11-27T18:16:33;13.67;;;8.53;;
11000;SDS011;5553;48.506;8.870;2022-11-27T18:19:03;15.00;;;10.00;;
11000;SDS011;5553;48.506;8.870;2022-11-27T18:21:33;13.90;;;9.33;;
11000;SDS011;5553;48.506;8.870;2022-11-27T18:24:02;16.80;;;10.20;;
11000;SDS011;5553;48.506;8.870;2022-11-27T18:26:35;14.57;;;8.97;;
11000;SDS011;5553;48.506;8.870;2022-11-27T18:29:03;16.87;;;11.70;;
11000;SDS011;5553;48.506;8.870;2022-11-27T18:31:32;18.43;;;12.00;;
11000;SDS011;5553;48.506;8.870;2022-11-27T18:34:01;23.03;;;13.57;;
11000;SDS011;5553;48.506;8.870;2022-11-27T18:36:29;16.67;;;11.53;;
11000;SDS011;5553;48.506;8.870;2022-11-27T18:39:00;26.30;;;16.47;;
11000;SDS011;5553;48.506;8.870;2022-11-27T18:41:29;30.40;;;16.80;;